createdAt,value
2023-05-04T00:01:24.624Z,62.10
2023-05-04T00:04:28.059Z,62.20
2023-05-04T00:07:31.177Z,62.50
2023-05-04T00:10:34.207Z,62.50
2023-05-04T00:13:37.206Z,62.70
2023-05-04T00:16:41.819Z,62.80
2023-05-04T00:19:46.055Z,63.00
2023-05-04T00:22:49.131Z,63.00
2023-05-04T00:25:52.235Z,63.20
2023-05-04T00:28:55.801Z,63.50
2023-05-04T00:32:00.434Z,63.50
2023-05-04T00:35:03.879Z,63.60
2023-05-04T00:38:06.959Z,63.60
2023-05-04T00:41:10.535Z,63.80
2023-05-04T00:44:14.129Z,64.00
2023-05-04T00:47:20.011Z,64.10
2023-05-04T00:50:23.130Z,64.20
2023-05-04T00:53:26.603Z,64.20
2023-05-04T00:56:30.974Z,64.30
2023-05-04T00:59:34.222Z,64.40
2023-05-04T01:02:38.745Z,64.50
2023-05-04T01:05:48.290Z,64.70
2023-05-04T01:09:01.111Z,64.80
2023-05-04T01:12:08.295Z,64.80
2023-05-04T01:15:13.213Z,64.80
2023-05-04T01:18:17.629Z,64.90
2023-05-04T01:21:20.618Z,65.00
2023-05-04T01:24:25.360Z,65.10
2023-05-04T01:27:36.631Z,65.20
2023-05-04T01:30:43.152Z,65.30
2023-05-04T01:33:46.838Z,65.50
2023-05-04T01:36:50.228Z,65.60
2023-05-04T01:39:54.575Z,65.70
2023-05-04T01:42:58.288Z,65.80
2023-05-04T01:46:01.309Z,65.80
2023-05-04T01:49:04.441Z,65.80
2023-05-04T01:52:07.663Z,66.10
2023-05-04T01:55:12.147Z,66.00
2023-05-04T01:58:15.207Z,66.10
2023-05-04T02:01:18.179Z,66.00
2023-05-04T02:04:21.492Z,66.20
2023-05-04T02:07:24.782Z,66.10
2023-05-04T02:10:29.260Z,66.10
2023-05-04T02:13:32.393Z,66.00
2023-05-04T02:16:35.498Z,66.10
2023-05-04T02:19:38.590Z,66.00
2023-05-04T02:22:41.889Z,65.90
2023-05-04T02:25:46.249Z,66.10
2023-05-04T02:28:49.291Z,65.80
2023-05-04T02:31:52.251Z,65.90
2023-05-04T02:34:55.344Z,65.80
2023-05-04T02:37:58.282Z,65.90
2023-05-04T02:41:03.047Z,65.90
2023-05-04T02:44:06.406Z,65.80
2023-05-04T02:47:09.602Z,65.90
2023-05-04T02:50:14.004Z,66.00
2023-05-04T02:53:17.085Z,65.90
2023-05-04T02:56:21.835Z,65.90
2023-05-04T02:59:24.850Z,66.00
2023-05-04T03:02:28.146Z,66.00
2023-05-04T03:05:31.262Z,66.10
2023-05-04T03:08:34.301Z,66.00
2023-05-04T03:11:38.715Z,66.10
2023-05-04T03:14:41.896Z,66.10
2023-05-04T03:17:44.944Z,66.20
2023-05-04T03:20:48.298Z,66.20
2023-05-04T03:23:52.378Z,66.30
2023-05-04T03:26:57.386Z,66.40
2023-05-04T03:30:00.354Z,66.40
2023-05-04T03:33:03.441Z,66.30
2023-05-04T03:36:07.012Z,66.20
2023-05-04T03:39:10.079Z,66.10
2023-05-04T03:42:14.546Z,66.30
2023-05-04T03:45:17.613Z,66.20
2023-05-04T03:48:20.812Z,66.10
2023-05-04T03:51:23.822Z,66.00
2023-05-04T03:54:27.297Z,66.00
2023-05-04T03:57:31.712Z,66.00
2023-05-04T04:00:35.160Z,66.10
2023-05-04T04:03:39.044Z,66.00
2023-05-04T04:06:43.539Z,65.70
2023-05-04T04:09:46.931Z,65.80
2023-05-04T04:12:51.696Z,65.60
2023-05-04T04:15:55.069Z,65.60
2023-05-04T04:18:58.823Z,65.80
2023-05-04T04:22:01.909Z,65.80
2023-05-04T04:25:05.440Z,66.10
2023-05-04T04:28:10.408Z,65.70
2023-05-04T04:31:13.442Z,65.50
2023-05-04T04:34:16.736Z,65.30
2023-05-04T04:37:19.671Z,65.30
2023-05-04T04:40:22.946Z,65.40
2023-05-04T04:43:27.397Z,65.30
2023-05-04T04:46:30.364Z,65.40
2023-05-04T04:49:33.545Z,65.30
2023-05-04T04:52:37.851Z,65.40
2023-05-04T04:55:42.218Z,65.40
2023-05-04T04:58:47.600Z,65.10
2023-05-04T05:01:50.654Z,64.80
2023-05-04T05:04:54.078Z,64.10
2023-05-04T05:07:57.238Z,63.40
2023-05-04T05:11:00.281Z,63.20
2023-05-04T05:14:04.725Z,63.20
2023-05-04T05:17:08.345Z,62.90
2023-05-04T05:20:11.822Z,62.50
2023-05-04T05:23:14.979Z,62.10
2023-05-04T05:26:17.963Z,61.90
2023-05-04T05:29:22.550Z,61.70
2023-05-04T05:32:25.744Z,61.00
2023-05-04T05:35:28.801Z,60.70
2023-05-04T05:38:31.808Z,60.10
2023-05-04T05:41:35.381Z,59.80
2023-05-04T05:44:39.892Z,58.80
2023-05-04T05:47:42.963Z,58.60
2023-05-04T05:50:46.629Z,57.90
2023-05-04T05:53:49.808Z,57.50
2023-05-04T05:56:52.895Z,57.20
2023-05-04T06:00:00.303Z,56.60
2023-05-04T06:03:03.632Z,56.20
2023-05-04T06:06:06.723Z,55.70
2023-05-04T06:09:09.672Z,55.00
2023-05-04T06:12:15.022Z,54.70
2023-05-04T06:15:19.483Z,54.40
2023-05-04T06:18:22.757Z,53.90
2023-05-04T06:21:26.040Z,53.90
2023-05-04T06:24:29.806Z,53.90
2023-05-04T06:27:33.491Z,53.70
2023-05-04T06:30:37.818Z,53.30
2023-05-04T06:33:40.914Z,52.50
2023-05-04T06:36:44.005Z,52.60
2023-05-04T06:39:47.022Z,51.60
2023-05-04T06:42:50.037Z,51.40
2023-05-04T06:45:54.351Z,50.90
2023-05-04T06:48:58.206Z,51.70
2023-05-04T06:52:01.360Z,51.60
2023-05-04T06:55:04.590Z,51.30
2023-05-04T06:58:07.924Z,50.40
2023-05-04T07:01:12.299Z,50.00
2023-05-04T07:04:16.347Z,50.00
2023-05-04T07:07:19.291Z,50.20
2023-05-04T07:10:23.939Z,50.80
2023-05-04T07:13:27.337Z,51.00
2023-05-04T07:16:33.033Z,49.50
2023-05-04T07:19:36.115Z,50.00
2023-05-04T07:22:39.083Z,50.30
2023-05-04T07:25:42.370Z,50.20
2023-05-04T07:28:45.320Z,49.80
2023-05-04T07:31:49.751Z,50.40
2023-05-04T07:34:52.828Z,49.30
2023-05-04T07:37:56.080Z,49.20
2023-05-04T07:40:59.111Z,49.30
2023-05-04T07:44:05.638Z,49.10
2023-05-04T07:47:10.652Z,49.20
2023-05-04T07:50:14.307Z,49.60
2023-05-04T07:53:17.493Z,49.50
2023-05-04T07:56:20.496Z,49.60
2023-05-04T07:59:23.395Z,49.80
2023-05-04T08:02:27.914Z,49.60
2023-05-04T08:05:31.088Z,49.10
2023-05-04T08:08:34.058Z,49.30
2023-05-04T08:11:37.735Z,49.70
2023-05-04T08:14:40.853Z,49.20
2023-05-04T08:17:45.689Z,49.20
2023-05-04T08:20:48.978Z,49.10
2023-05-04T08:23:52.018Z,49.30
2023-05-04T08:27:07.033Z,49.30
2023-05-04T08:30:11.138Z,48.90
2023-05-04T08:33:15.522Z,48.60
2023-05-04T08:36:18.482Z,49.30
2023-05-04T08:39:21.566Z,47.60
2023-05-04T08:42:31.309Z,47.90
2023-05-04T08:45:38.524Z,47.90
2023-05-04T08:48:44.757Z,47.80
2023-05-04T08:51:50.091Z,47.20
2023-05-04T08:54:55.377Z,46.60
2023-05-04T08:58:04.862Z,45.80
2023-05-04T09:01:09.257Z,45.70
2023-05-04T09:04:14.126Z,45.60
2023-05-04T09:07:17.732Z,44.70
2023-05-04T09:10:21.203Z,44.60
2023-05-04T09:13:24.546Z,44.70
2023-05-04T09:16:35.631Z,44.50
2023-05-04T09:19:43.753Z,45.00
2023-05-04T09:22:46.840Z,44.90
2023-05-04T09:25:50.717Z,44.20
2023-05-04T09:28:53.875Z,45.30
2023-05-04T09:31:56.898Z,45.40
2023-05-04T09:35:01.420Z,45.40
2023-05-04T09:38:05.133Z,45.50
2023-05-04T09:41:08.228Z,44.00
2023-05-04T09:44:19.923Z,44.70
2023-05-04T09:47:23.138Z,44.20
2023-05-04T09:50:33.184Z,44.20
2023-05-04T09:53:40.330Z,44.00
2023-05-04T09:56:48.364Z,43.10
2023-05-04T09:59:52.268Z,44.00
2023-05-04T10:02:56.004Z,43.90
2023-05-04T10:06:04.129Z,44.10
2023-05-04T10:09:07.488Z,43.70
2023-05-04T10:12:10.445Z,44.30
2023-05-04T10:15:14.075Z,43.50
2023-05-04T10:18:28.204Z,42.90
2023-05-04T10:21:42.388Z,43.20
2023-05-04T10:25:09.148Z,42.80
2023-05-04T10:28:24.141Z,42.90
2023-05-04T10:31:37.427Z,42.30
2023-05-04T10:34:40.758Z,42.40
2023-05-04T10:37:54.244Z,42.20
2023-05-04T10:40:59.180Z,42.50
2023-05-04T10:44:05.707Z,41.80
2023-05-04T10:47:09.519Z,41.80
2023-05-04T10:50:14.802Z,42.20
2023-05-04T10:53:19.929Z,42.00
2023-05-04T10:56:24.150Z,42.10
2023-05-04T10:59:27.115Z,42.00
2023-05-04T11:02:31.783Z,41.40
2023-05-04T11:05:43.683Z,41.90
2023-05-04T11:08:50.249Z,41.50
2023-05-04T11:11:54.366Z,40.90
2023-05-04T11:15:06.960Z,40.60
2023-05-04T11:18:10.148Z,40.80
2023-05-04T11:21:13.841Z,41.20
2023-05-04T11:24:19.572Z,41.60
2023-05-04T11:27:24.229Z,41.40
2023-05-04T11:30:33.792Z,41.70
2023-05-04T11:33:36.840Z,42.00
2023-05-04T11:36:39.863Z,40.70
2023-05-04T11:39:44.316Z,40.90
2023-05-04T11:42:49.652Z,40.90
2023-05-04T11:45:54.710Z,40.80
2023-05-04T11:48:57.959Z,40.80
2023-05-04T11:52:07.916Z,40.20
2023-05-04T11:55:13.390Z,40.60
2023-05-04T11:58:16.906Z,39.40
2023-05-04T12:01:20.094Z,40.00
2023-05-04T12:04:23.124Z,41.00
2023-05-04T12:07:26.309Z,40.40
2023-05-04T12:10:33.335Z,39.60
2023-05-04T12:13:36.754Z,39.80
2023-05-04T12:16:40.332Z,40.20
2023-05-04T12:19:52.052Z,40.70
2023-05-04T12:22:55.338Z,40.60
2023-05-04T12:25:59.670Z,40.30
2023-05-04T12:29:02.679Z,38.90
2023-05-04T12:32:05.891Z,39.20
2023-05-04T12:35:09.460Z,39.30
2023-05-04T12:38:12.455Z,39.20
2023-05-04T12:41:16.852Z,39.40
2023-05-04T12:44:19.793Z,39.00
2023-05-04T12:47:24.701Z,39.70
2023-05-04T12:50:27.742Z,39.70
2023-05-04T12:53:32.118Z,39.50
2023-05-04T12:56:38.331Z,39.50
2023-05-04T12:59:41.374Z,40.10
2023-05-04T13:02:44.456Z,39.60
2023-05-04T13:05:49.770Z,39.70
2023-05-04T13:08:52.938Z,39.60
2023-05-04T13:11:57.269Z,39.70
2023-05-04T13:15:00.943Z,39.80
2023-05-04T13:18:04.051Z,39.70
2023-05-04T13:21:07.415Z,39.50
2023-05-04T13:24:11.386Z,39.60
2023-05-04T13:27:15.809Z,39.20
2023-05-04T13:30:20.572Z,39.40
2023-05-04T13:33:29.437Z,39.00
2023-05-04T13:36:33.389Z,38.70
2023-05-04T13:39:41.277Z,38.90
2023-05-04T13:42:45.642Z,38.70
2023-05-04T13:45:49.162Z,38.90
2023-05-04T13:48:52.267Z,39.10
2023-05-04T13:51:56.274Z,39.30
2023-05-04T13:54:59.301Z,39.10
2023-05-04T13:58:03.888Z,39.00
2023-05-04T14:01:06.939Z,39.10
2023-05-04T14:04:09.925Z,39.40
2023-05-04T14:07:12.979Z,38.60
2023-05-04T14:10:15.931Z,39.20
2023-05-04T14:13:20.675Z,39.20
2023-05-04T14:16:24.141Z,38.80
2023-05-04T14:19:28.181Z,38.50
2023-05-04T14:22:31.082Z,38.90
2023-05-04T14:25:34.083Z,38.80
2023-05-04T14:28:38.412Z,39.20
2023-05-04T14:31:41.539Z,38.60
2023-05-04T14:34:44.588Z,38.60
2023-05-04T14:37:49.386Z,39.00
2023-05-04T14:40:53.153Z,39.20
2023-05-04T14:43:57.439Z,38.70
2023-05-04T14:47:02.375Z,39.10
2023-05-04T14:50:07.436Z,39.60
2023-05-04T14:53:11.855Z,39.50
2023-05-04T14:56:14.838Z,39.60
2023-05-04T14:59:19.822Z,39.00
2023-05-04T15:02:23.011Z,38.80
2023-05-04T15:05:26.013Z,38.50
2023-05-04T15:08:30.929Z,38.20
2023-05-04T15:11:36.653Z,38.20
2023-05-04T15:14:43.477Z,37.80
2023-05-04T15:17:46.500Z,39.00
2023-05-04T15:20:49.611Z,37.90
2023-05-04T15:23:52.649Z,37.90
2023-05-04T15:26:55.589Z,37.60
2023-05-04T15:29:59.903Z,38.10
2023-05-04T15:33:04.219Z,38.30
2023-05-04T15:36:08.849Z,38.20
2023-05-04T15:39:13.066Z,38.20
2023-05-04T15:42:16.066Z,37.70
2023-05-04T15:45:21.077Z,38.70
2023-05-04T15:48:24.253Z,38.30
2023-05-04T15:51:30.193Z,39.00
2023-05-04T15:54:33.887Z,39.10
2023-05-04T15:57:37.190Z,39.30
2023-05-04T16:00:41.540Z,39.90
2023-05-04T16:03:44.979Z,39.10
2023-05-04T16:06:48.657Z,39.50
2023-05-04T16:09:55.200Z,39.50
2023-05-04T16:13:03.884Z,39.00
2023-05-04T16:16:09.733Z,39.30
2023-05-04T16:19:14.886Z,38.60
2023-05-04T16:22:18.123Z,39.20
2023-05-04T16:25:21.533Z,39.70
2023-05-04T16:28:24.502Z,39.50
2023-05-04T16:31:29.028Z,39.60
2023-05-04T16:34:32.051Z,39.40
2023-05-04T16:37:37.039Z,39.50
2023-05-04T16:40:41.182Z,40.10
2023-05-04T16:43:44.224Z,39.60
2023-05-04T16:46:50.975Z,39.90
2023-05-04T16:49:54.019Z,39.70
2023-05-04T16:52:56.928Z,40.10
2023-05-04T16:55:59.930Z,39.80
2023-05-04T16:59:02.955Z,39.80
2023-05-04T17:05:12.198Z,39.90
2023-05-04T17:08:17.088Z,39.90
2023-05-04T17:11:21.854Z,40.60
2023-05-04T17:14:24.882Z,40.40
2023-05-04T17:17:29.341Z,41.00
2023-05-04T17:20:32.417Z,40.50
2023-05-04T17:23:35.573Z,40.60
2023-05-04T17:26:39.744Z,41.00
2023-05-04T17:29:43.842Z,40.80
2023-05-04T17:32:48.544Z,41.00
2023-05-04T17:35:51.735Z,41.00
2023-05-04T17:38:55.195Z,40.80
2023-05-04T17:41:58.289Z,40.90
2023-05-04T17:45:01.521Z,41.20
2023-05-04T17:48:06.559Z,41.00
2023-05-04T17:51:10.017Z,41.10
2023-05-04T17:54:13.158Z,41.10
2023-05-04T17:57:16.606Z,41.20
2023-05-04T18:00:20.171Z,41.60
2023-05-04T18:03:25.942Z,41.60
2023-05-04T18:06:29.364Z,41.80
2023-05-04T18:09:32.348Z,41.90
2023-05-04T18:12:35.626Z,42.10
2023-05-04T18:15:40.727Z,42.50
2023-05-04T18:18:45.839Z,42.50
2023-05-04T18:21:48.776Z,42.50
2023-05-04T18:24:52.717Z,42.60
2023-05-04T18:27:56.216Z,42.60
2023-05-04T18:30:59.162Z,44.50
2023-05-04T18:34:04.028Z,45.70
2023-05-04T18:37:06.971Z,46.10
2023-05-04T18:40:11.124Z,46.90
2023-05-04T18:43:14.360Z,47.10
2023-05-04T18:46:17.487Z,47.20
2023-05-04T18:49:21.889Z,47.50
2023-05-04T18:52:24.882Z,47.40
2023-05-04T18:55:28.108Z,47.60
2023-05-04T18:58:31.341Z,47.50
2023-05-04T19:01:34.593Z,47.40
2023-05-04T19:04:39.026Z,47.40
2023-05-04T19:07:42.534Z,47.60
2023-05-04T19:10:45.545Z,48.30
2023-05-04T19:13:49.876Z,47.90
2023-05-04T19:16:53.259Z,47.70
2023-05-04T19:19:57.885Z,47.80
2023-05-04T19:23:00.901Z,47.90
2023-05-04T19:26:04.134Z,47.80
2023-05-04T19:29:07.040Z,47.60
2023-05-04T19:32:22.842Z,47.90
2023-05-04T19:35:28.292Z,47.80
2023-05-04T19:38:31.335Z,47.50
2023-05-04T19:41:36.361Z,47.60
2023-05-04T19:44:39.372Z,47.70
2023-05-04T19:47:45.370Z,48.20
2023-05-04T19:50:49.832Z,48.20
2023-05-04T19:53:52.867Z,48.30
2023-05-04T19:56:55.903Z,48.10
2023-05-04T19:59:59.213Z,48.00
2023-05-04T20:03:02.560Z,48.00
2023-05-04T20:06:07.232Z,48.30
2023-05-04T20:09:10.815Z,48.10
2023-05-04T20:12:13.753Z,48.30
2023-05-04T20:15:16.780Z,48.30
2023-05-04T20:18:20.115Z,48.80
2023-05-04T20:21:24.506Z,48.70
2023-05-04T20:24:27.479Z,48.90
2023-05-04T20:27:30.643Z,48.50
2023-05-04T20:30:33.625Z,48.30
2023-05-04T20:33:36.929Z,48.40
2023-05-04T20:36:41.321Z,48.50
2023-05-04T20:39:44.366Z,48.80
2023-05-04T20:42:47.571Z,48.90
2023-05-04T20:45:51.944Z,49.30
2023-05-04T20:48:55.118Z,49.60
2023-05-04T20:51:59.830Z,50.10
2023-05-04T20:55:02.887Z,50.30
2023-05-04T20:58:05.893Z,50.40
2023-05-04T21:01:09.077Z,51.40
2023-05-04T21:04:13.669Z,51.20
2023-05-04T21:07:20.969Z,51.20
2023-05-04T21:10:25.325Z,51.60
2023-05-04T21:13:28.351Z,51.90
2023-05-04T21:16:31.517Z,52.20
2023-05-04T21:19:34.729Z,52.30
2023-05-04T21:22:39.375Z,52.50
2023-05-04T21:25:42.449Z,52.80
2023-05-04T21:28:46.526Z,52.80
2023-05-04T21:31:49.578Z,53.40
2023-05-04T21:34:54.182Z,53.50
2023-05-04T21:37:59.546Z,53.50
2023-05-04T21:41:11.437Z,53.60
2023-05-04T21:44:14.701Z,53.60
2023-05-04T21:47:17.730Z,53.90
2023-05-04T21:50:21.862Z,53.90
2023-05-04T21:53:26.688Z,53.90
2023-05-04T21:56:29.750Z,54.00
2023-05-04T21:59:32.822Z,54.20
2023-05-04T22:02:35.967Z,54.20
2023-05-04T22:05:39.613Z,54.40
2023-05-04T22:08:44.800Z,54.30
2023-05-04T22:11:48.537Z,54.50
2023-05-04T22:14:52.124Z,54.60
2023-05-04T22:17:55.568Z,55.10
2023-05-04T22:20:58.654Z,55.30
2023-05-04T22:24:03.132Z,55.60
2023-05-04T22:27:06.267Z,55.80
2023-05-04T22:30:10.663Z,56.20
2023-05-04T22:33:13.807Z,56.40
2023-05-04T22:36:16.910Z,56.80
2023-05-04T22:39:22.084Z,57.10
2023-05-04T22:42:25.125Z,57.10
2023-05-04T22:45:28.160Z,57.40
2023-05-04T22:48:32.444Z,57.60
2023-05-04T22:51:35.503Z,57.70
2023-05-04T22:54:39.849Z,57.70
2023-05-04T22:57:43.279Z,57.80
2023-05-04T23:00:47.931Z,58.00
2023-05-04T23:03:51.313Z,58.40
2023-05-04T23:06:55.484Z,58.40
2023-05-04T23:10:00.243Z,58.80
2023-05-04T23:13:03.482Z,58.80
2023-05-04T23:16:07.457Z,59.00
2023-05-04T23:19:11.185Z,59.20
2023-05-04T23:22:14.353Z,59.50
2023-05-04T23:25:18.903Z,59.80
2023-05-04T23:28:21.966Z,59.80
2023-05-04T23:31:28.213Z,59.70
2023-05-04T23:34:31.956Z,59.70
2023-05-04T23:37:34.960Z,59.80
2023-05-04T23:40:39.609Z,59.80
2023-05-04T23:43:42.699Z,59.80
2023-05-04T23:46:45.812Z,59.90
2023-05-04T23:49:48.834Z,60.40
2023-05-04T23:52:52.075Z,60.20
2023-05-04T23:56:02.696Z,60.20
2023-05-04T23:59:06.910Z,60.20
